sensor_id;sensor_type;location;lat;lon;timestamp;P1;durP1;ratioP1;P2;durP2;ratioP2
21810;SDS011;11067;48.788;9.208;2023-05-16T00:01:05;9.80;;;6.65;;
21810;SDS011;11067;48.788;9.208;2023-05-16T00:03:32;10.82;;;6.97;;
21810;SDS011;11067;48.788;9.208;2023-05-16T00:05:58;10.40;;;7.22;;
21810;SDS011;11067;48.788;9.208;2023-05-16T00:08:24;10.07;;;7.55;;
21810;SDS011;11067;48.788;9.208;2023-05-16T00:10:50;11.73;;;7.53;;
21810;SDS011;11067;48.788;9.208;2023-05-16T00:13:16;9.97;;;7.63;;
21810;SDS011;11067;48.788;9.208;2023-05-16T00:15:46;9.57;;;7.70;;
21810;SDS011;11067;48.788;9.208;2023-05-16T00:18:11;10.43;;;7.93;;
21810;SDS011;11067;48.788;9.208;2023-05-16T00:20:40;11.02;;;7.82;;
21810;SDS011;11067;48.788;9.208;2023-05-16T00:23:06;10.82;;;8.18;;
21810;SDS011;11067;48.788;9.208;2023-05-16T00:25:31;9.20;;;7.17;;
21810;SDS011;11067;48.788;9.208;2023-05-16T00:27:57;8.97;;;7.10;;
21810;SDS011;11067;48.788;9.208;2023-05-16T00:30:22;13.15;;;7.80;;
21810;SDS011;11067;48.788;9.208;2023-05-16T00:32:48;11.77;;;8.60;;
21810;SDS011;11067;48.788;9.208;2023-05-16T00:35:13;11.30;;;8.20;;
21810;SDS011;11067;48.788;9.208;2023-05-16T00:37:39;13.40;;;8.38;;
21810;SDS011;11067;48.788;9.208;2023-05-16T00:40:05;11.90;;;8.70;;
21810;SDS011;11067;48.788;9.208;2023-05-16T00:42:31;12.48;;;8.52;;
21810;SDS011;11067;48.788;9.208;2023-05-16T00:44:57;12.75;;;8.07;;
21810;SDS011;11067;48.788;9.208;2023-05-16T00:47:23;11.18;;;8.30;;
21810;SDS011;11067;48.788;9.208;2023-05-16T00:49:48;11.83;;;8.77;;
21810;SDS011;11067;48.788;9.208;2023-05-16T00:52:14;12.30;;;8.73;;
21810;SDS011;11067;48.788;9.208;2023-05-16T00:54:40;12.30;;;8.63;;
21810;SDS011;11067;48.788;9.208;2023-05-16T00:57:05;9.45;;;7.43;;
21810;SDS011;11067;48.788;9.208;2023-05-16T00:59:32;10.80;;;8.23;;
21810;SDS011;11067;48.788;9.208;2023-05-16T01:01:58;10.37;;;7.80;;
21810;SDS011;11067;48.788;9.208;2023-05-16T01:04:24;12.33;;;8.37;;
21810;SDS011;11067;48.788;9.208;2023-05-16T01:06:50;16.83;;;11.30;;
21810;SDS011;11067;48.788;9.208;2023-05-16T01:09:16;16.43;;;11.40;;
21810;SDS011;11067;48.788;9.208;2023-05-16T01:11:42;18.13;;;11.48;;
21810;SDS011;11067;48.788;9.208;2023-05-16T01:14:25;18.88;;;11.88;;
21810;SDS011;11067;48.788;9.208;2023-05-16T01:25:38;18.33;;;11.52;;
21810;SDS011;11067;48.788;9.208;2023-05-16T01:28:02;16.25;;;10.98;;
21810;SDS011;11067;48.788;9.208;2023-05-16T01:30:36;17.27;;;10.75;;
21810;SDS011;11067;48.788;9.208;2023-05-16T01:33:03;17.33;;;12.40;;
21810;SDS011;11067;48.788;9.208;2023-05-16T01:35:29;20.67;;;12.30;;
21810;SDS011;11067;48.788;9.208;2023-05-16T01:38:38;20.30;;;13.50;;
21810;SDS011;11067;48.788;9.208;2023-05-16T01:40:52;20.35;;;14.10;;
21810;SDS011;11067;48.788;9.208;2023-05-16T01:43:24;22.58;;;14.90;;
21810;SDS011;11067;48.788;9.208;2023-05-16T01:45:59;24.85;;;15.20;;
21810;SDS011;11067;48.788;9.208;2023-05-16T01:48:31;24.92;;;15.88;;
21810;SDS011;11067;48.788;9.208;2023-05-16T01:51:04;24.42;;;15.68;;
21810;SDS011;11067;48.788;9.208;2023-05-16T01:53:32;24.88;;;16.08;;
21810;SDS011;11067;48.788;9.208;2023-05-16T01:56:02;23.00;;;14.93;;
21810;SDS011;11067;48.788;9.208;2023-05-16T01:58:32;26.80;;;16.70;;
21810;SDS011;11067;48.788;9.208;2023-05-16T02:01:03;27.38;;;16.48;;
21810;SDS011;11067;48.788;9.208;2023-05-16T02:03:32;25.90;;;16.23;;
21810;SDS011;11067;48.788;9.208;2023-05-16T02:05:59;28.40;;;16.75;;
21810;SDS011;11067;48.788;9.208;2023-05-16T02:08:25;27.83;;;17.00;;
21810;SDS011;11067;48.788;9.208;2023-05-16T02:10:51;30.30;;;17.80;;
21810;SDS011;11067;48.788;9.208;2023-05-16T02:13:17;32.00;;;17.00;;
21810;SDS011;11067;48.788;9.208;2023-05-16T02:15:43;27.77;;;17.10;;
21810;SDS011;11067;48.788;9.208;2023-05-16T02:18:09;30.73;;;17.53;;
21810;SDS011;11067;48.788;9.208;2023-05-16T02:20:35;30.20;;;17.13;;
21810;SDS011;11067;48.788;9.208;2023-05-16T02:23:00;32.03;;;17.77;;
21810;SDS011;11067;48.788;9.208;2023-05-16T02:25:27;30.30;;;18.08;;
21810;SDS011;11067;48.788;9.208;2023-05-16T02:27:53;28.88;;;18.08;;
21810;SDS011;11067;48.788;9.208;2023-05-16T02:30:18;29.60;;;18.05;;
21810;SDS011;11067;48.788;9.208;2023-05-16T02:32:44;32.53;;;19.07;;
21810;SDS011;11067;48.788;9.208;2023-05-16T02:35:10;30.77;;;18.90;;
21810;SDS011;11067;48.788;9.208;2023-05-16T02:37:35;32.15;;;17.98;;
21810;SDS011;11067;48.788;9.208;2023-05-16T02:40:02;32.30;;;18.20;;
21810;SDS011;11067;48.788;9.208;2023-05-16T02:42:29;31.77;;;18.25;;
21810;SDS011;11067;48.788;9.208;2023-05-16T02:44:56;29.75;;;17.63;;
21810;SDS011;11067;48.788;9.208;2023-05-16T02:47:21;32.23;;;18.43;;
21810;SDS011;11067;48.788;9.208;2023-05-16T02:49:47;32.40;;;18.20;;
21810;SDS011;11067;48.788;9.208;2023-05-16T02:52:12;35.15;;;19.20;;
21810;SDS011;11067;48.788;9.208;2023-05-16T02:54:38;32.50;;;18.48;;
21810;SDS011;11067;48.788;9.208;2023-05-16T02:57:04;32.30;;;18.47;;
21810;SDS011;11067;48.788;9.208;2023-05-16T02:59:29;33.43;;;19.53;;
21810;SDS011;11067;48.788;9.208;2023-05-16T03:01:55;32.67;;;18.73;;
21810;SDS011;11067;48.788;9.208;2023-05-16T03:04:20;32.07;;;19.13;;
21810;SDS011;11067;48.788;9.208;2023-05-16T03:06:47;40.07;;;19.97;;
21810;SDS011;11067;48.788;9.208;2023-05-16T03:09:15;34.30;;;18.75;;
21810;SDS011;11067;48.788;9.208;2023-05-16T03:11:41;35.30;;;19.10;;
21810;SDS011;11067;48.788;9.208;2023-05-16T03:14:06;31.63;;;18.35;;
21810;SDS011;11067;48.788;9.208;2023-05-16T03:16:32;31.05;;;18.17;;
21810;SDS011;11067;48.788;9.208;2023-05-16T03:18:58;39.22;;;20.10;;
21810;SDS011;11067;48.788;9.208;2023-05-16T03:21:23;33.37;;;18.97;;
21810;SDS011;11067;48.788;9.208;2023-05-16T03:23:49;36.75;;;20.17;;
21810;SDS011;11067;48.788;9.208;2023-05-16T03:26:15;36.60;;;20.80;;
21810;SDS011;11067;48.788;9.208;2023-05-16T03:28:40;36.33;;;19.93;;
21810;SDS011;11067;48.788;9.208;2023-05-16T03:31:06;36.33;;;20.80;;
21810;SDS011;11067;48.788;9.208;2023-05-16T03:33:31;34.97;;;19.80;;
21810;SDS011;11067;48.788;9.208;2023-05-16T03:35:57;41.33;;;20.50;;
21810;SDS011;11067;48.788;9.208;2023-05-16T03:38:23;40.70;;;21.33;;
21810;SDS011;11067;48.788;9.208;2023-05-16T03:40:48;40.83;;;21.73;;
21810;SDS011;11067;48.788;9.208;2023-05-16T03:43:15;38.97;;;21.65;;
21810;SDS011;11067;48.788;9.208;2023-05-16T03:45:40;37.33;;;20.73;;
21810;SDS011;11067;48.788;9.208;2023-05-16T03:48:07;42.33;;;23.80;;
21810;SDS011;11067;48.788;9.208;2023-05-16T03:50:33;42.28;;;21.40;;
21810;SDS011;11067;48.788;9.208;2023-05-16T03:53:01;43.00;;;22.67;;
21810;SDS011;11067;48.788;9.208;2023-05-16T03:55:27;42.57;;;22.30;;
21810;SDS011;11067;48.788;9.208;2023-05-16T03:57:54;42.75;;;21.63;;
21810;SDS011;11067;48.788;9.208;2023-05-16T04:00:20;44.42;;;23.73;;
21810;SDS011;11067;48.788;9.208;2023-05-16T04:02:46;40.57;;;22.33;;
21810;SDS011;11067;48.788;9.208;2023-05-16T04:05:11;47.17;;;23.53;;
21810;SDS011;11067;48.788;9.208;2023-05-16T04:07:37;40.17;;;21.90;;
21810;SDS011;11067;48.788;9.208;2023-05-16T04:10:04;45.00;;;23.50;;
21810;SDS011;11067;48.788;9.208;2023-05-16T04:12:30;47.77;;;24.53;;
21810;SDS011;11067;48.788;9.208;2023-05-16T04:14:56;44.07;;;21.67;;
21810;SDS011;11067;48.788;9.208;2023-05-16T04:17:21;46.40;;;23.40;;
21810;SDS011;11067;48.788;9.208;2023-05-16T04:19:47;46.22;;;23.38;;
21810;SDS011;11067;48.788;9.208;2023-05-16T04:22:12;44.30;;;22.53;;
21810;SDS011;11067;48.788;9.208;2023-05-16T04:24:38;42.30;;;22.53;;
21810;SDS011;11067;48.788;9.208;2023-05-16T04:27:04;45.42;;;23.25;;
21810;SDS011;11067;48.788;9.208;2023-05-16T04:29:32;44.38;;;23.63;;
21810;SDS011;11067;48.788;9.208;2023-05-16T04:31:58;45.92;;;23.23;;
21810;SDS011;11067;48.788;9.208;2023-05-16T04:34:24;50.90;;;24.40;;
21810;SDS011;11067;48.788;9.208;2023-05-16T04:36:52;52.35;;;24.83;;
21810;SDS011;11067;48.788;9.208;2023-05-16T04:39:18;44.50;;;24.10;;
21810;SDS011;11067;48.788;9.208;2023-05-16T04:41:43;45.13;;;22.47;;
21810;SDS011;11067;48.788;9.208;2023-05-16T04:44:09;48.43;;;23.50;;
21810;SDS011;11067;48.788;9.208;2023-05-16T04:46:35;43.45;;;23.40;;
21810;SDS011;11067;48.788;9.208;2023-05-16T04:49:01;44.15;;;22.25;;
21810;SDS011;11067;48.788;9.208;2023-05-16T04:51:27;47.78;;;23.80;;
21810;SDS011;11067;48.788;9.208;2023-05-16T04:53:52;44.70;;;23.00;;
21810;SDS011;11067;48.788;9.208;2023-05-16T04:56:18;47.72;;;23.02;;
21810;SDS011;11067;48.788;9.208;2023-05-16T04:58:44;44.27;;;22.37;;
21810;SDS011;11067;48.788;9.208;2023-05-16T05:01:10;40.13;;;22.33;;
21810;SDS011;11067;48.788;9.208;2023-05-16T05:03:35;41.83;;;21.73;;
21810;SDS011;11067;48.788;9.208;2023-05-16T05:06:01;44.77;;;21.47;;
21810;SDS011;11067;48.788;9.208;2023-05-16T05:08:27;41.28;;;22.27;;
21810;SDS011;11067;48.788;9.208;2023-05-16T05:10:54;40.17;;;21.70;;
21810;SDS011;11067;48.788;9.208;2023-05-16T05:13:20;39.90;;;22.27;;
21810;SDS011;11067;48.788;9.208;2023-05-16T05:15:46;48.55;;;22.65;;
21810;SDS011;11067;48.788;9.208;2023-05-16T05:18:11;40.67;;;20.60;;
21810;SDS011;11067;48.788;9.208;2023-05-16T05:20:37;41.20;;;21.13;;
21810;SDS011;11067;48.788;9.208;2023-05-16T05:23:02;43.47;;;22.05;;
21810;SDS011;11067;48.788;9.208;2023-05-16T05:25:28;43.30;;;22.90;;
21810;SDS011;11067;48.788;9.208;2023-05-16T05:27:53;42.00;;;21.37;;
21810;SDS011;11067;48.788;9.208;2023-05-16T05:30:19;37.75;;;21.30;;
21810;SDS011;11067;48.788;9.208;2023-05-16T05:32:45;41.67;;;21.80;;
21810;SDS011;11067;48.788;9.208;2023-05-16T05:35:10;38.80;;;21.80;;
21810;SDS011;11067;48.788;9.208;2023-05-16T05:37:36;39.43;;;21.67;;
21810;SDS011;11067;48.788;9.208;2023-05-16T05:40:01;42.20;;;21.43;;
21810;SDS011;11067;48.788;9.208;2023-05-16T05:42:28;41.53;;;22.60;;
21810;SDS011;11067;48.788;9.208;2023-05-16T05:44:53;38.72;;;21.02;;
21810;SDS011;11067;48.788;9.208;2023-05-16T05:47:19;39.67;;;21.27;;
21810;SDS011;11067;48.788;9.208;2023-05-16T05:49:45;43.15;;;22.30;;
21810;SDS011;11067;48.788;9.208;2023-05-16T05:52:11;39.78;;;21.02;;
21810;SDS011;11067;48.788;9.208;2023-05-16T05:54:37;43.42;;;22.35;;
21810;SDS011;11067;48.788;9.208;2023-05-16T05:57:02;41.13;;;22.17;;
21810;SDS011;11067;48.788;9.208;2023-05-16T05:59:28;40.73;;;21.87;;
21810;SDS011;11067;48.788;9.208;2023-05-16T06:01:53;41.47;;;22.20;;
21810;SDS011;11067;48.788;9.208;2023-05-16T06:04:19;36.67;;;20.30;;
21810;SDS011;11067;48.788;9.208;2023-05-16T06:06:45;39.03;;;20.95;;
21810;SDS011;11067;48.788;9.208;2023-05-16T06:09:11;40.45;;;21.55;;
21810;SDS011;11067;48.788;9.208;2023-05-16T06:11:38;36.53;;;18.30;;
21810;SDS011;11067;48.788;9.208;2023-05-16T06:14:05;37.08;;;20.55;;
21810;SDS011;11067;48.788;9.208;2023-05-16T06:16:30;38.22;;;20.48;;
21810;SDS011;11067;48.788;9.208;2023-05-16T06:18:56;38.17;;;20.57;;
21810;SDS011;11067;48.788;9.208;2023-05-16T06:21:21;35.90;;;19.63;;
21810;SDS011;11067;48.788;9.208;2023-05-16T06:23:47;35.63;;;19.50;;
21810;SDS011;11067;48.788;9.208;2023-05-16T06:26:12;36.33;;;19.40;;
21810;SDS011;11067;48.788;9.208;2023-05-16T06:28:38;35.37;;;19.37;;
21810;SDS011;11067;48.788;9.208;2023-05-16T06:31:03;32.08;;;18.98;;
21810;SDS011;11067;48.788;9.208;2023-05-16T06:33:29;31.85;;;18.55;;
21810;SDS011;11067;48.788;9.208;2023-05-16T06:35:55;33.33;;;18.33;;
21810;SDS011;11067;48.788;9.208;2023-05-16T06:38:20;33.50;;;18.93;;
21810;SDS011;11067;48.788;9.208;2023-05-16T06:40:46;34.60;;;19.58;;
21810;SDS011;11067;48.788;9.208;2023-05-16T06:43:11;32.50;;;16.83;;
21810;SDS011;11067;48.788;9.208;2023-05-16T06:45:37;30.27;;;17.43;;
21810;SDS011;11067;48.788;9.208;2023-05-16T06:48:03;33.78;;;18.13;;
21810;SDS011;11067;48.788;9.208;2023-05-16T06:50:30;29.30;;;17.20;;
21810;SDS011;11067;48.788;9.208;2023-05-16T06:52:55;33.95;;;18.73;;
21810;SDS011;11067;48.788;9.208;2023-05-16T06:55:21;34.78;;;17.90;;
21810;SDS011;11067;48.788;9.208;2023-05-16T06:57:46;32.47;;;18.57;;
21810;SDS011;11067;48.788;9.208;2023-05-16T07:00:12;30.00;;;17.23;;
21810;SDS011;11067;48.788;9.208;2023-05-16T07:02:38;32.90;;;17.58;;
21810;SDS011;11067;48.788;9.208;2023-05-16T07:05:05;30.50;;;17.67;;
21810;SDS011;11067;48.788;9.208;2023-05-16T07:07:31;30.70;;;17.53;;
21810;SDS011;11067;48.788;9.208;2023-05-16T07:09:56;28.50;;;16.80;;
21810;SDS011;11067;48.788;9.208;2023-05-16T07:12:22;25.33;;;15.30;;
21810;SDS011;11067;48.788;9.208;2023-05-16T07:14:47;27.13;;;15.97;;
21810;SDS011;11067;48.788;9.208;2023-05-16T07:17:13;25.60;;;15.43;;
21810;SDS011;11067;48.788;9.208;2023-05-16T07:19:39;31.73;;;16.88;;
21810;SDS011;11067;48.788;9.208;2023-05-16T07:22:05;27.30;;;16.52;;
21810;SDS011;11067;48.788;9.208;2023-05-16T07:24:30;22.57;;;14.43;;
21810;SDS011;11067;48.788;9.208;2023-05-16T07:26:56;24.70;;;14.57;;
21810;SDS011;11067;48.788;9.208;2023-05-16T07:29:21;24.25;;;14.25;;
21810;SDS011;11067;48.788;9.208;2023-05-16T07:31:47;20.97;;;12.23;;
21810;SDS011;11067;48.788;9.208;2023-05-16T07:34:12;19.60;;;11.80;;
21810;SDS011;11067;48.788;9.208;2023-05-16T07:36:38;15.52;;;9.52;;
21810;SDS011;11067;48.788;9.208;2023-05-16T07:39:03;16.73;;;10.50;;
21810;SDS011;11067;48.788;9.208;2023-05-16T07:41:29;11.80;;;8.57;;
21810;SDS011;11067;48.788;9.208;2023-05-16T07:43:55;13.07;;;9.70;;
21810;SDS011;11067;48.788;9.208;2023-05-16T07:46:21;13.23;;;8.63;;
21810;SDS011;11067;48.788;9.208;2023-05-16T07:48:47;13.02;;;9.30;;
21810;SDS011;11067;48.788;9.208;2023-05-16T07:51:12;13.97;;;8.73;;
21810;SDS011;11067;48.788;9.208;2023-05-16T07:53:38;11.70;;;8.10;;
21810;SDS011;11067;48.788;9.208;2023-05-16T07:56:04;13.35;;;8.30;;
21810;SDS011;11067;48.788;9.208;2023-05-16T07:58:31;16.30;;;8.88;;
21810;SDS011;11067;48.788;9.208;2023-05-16T08:00:57;11.82;;;7.85;;
21810;SDS011;11067;48.788;9.208;2023-05-16T08:03:23;13.13;;;7.70;;
21810;SDS011;11067;48.788;9.208;2023-05-16T08:05:48;12.57;;;7.40;;
21810;SDS011;11067;48.788;9.208;2023-05-16T08:08:14;11.43;;;8.05;;
21810;SDS011;11067;48.788;9.208;2023-05-16T08:10:39;12.90;;;8.40;;
21810;SDS011;11067;48.788;9.208;2023-05-16T08:13:05;12.17;;;8.10;;
21810;SDS011;11067;48.788;9.208;2023-05-16T08:15:30;9.27;;;7.05;;
21810;SDS011;11067;48.788;9.208;2023-05-16T08:17:56;11.40;;;7.50;;
21810;SDS011;11067;48.788;9.208;2023-05-16T08:20:23;11.07;;;7.57;;
21810;SDS011;11067;48.788;9.208;2023-05-16T08:22:49;11.80;;;8.10;;
21810;SDS011;11067;48.788;9.208;2023-05-16T08:25:15;11.63;;;8.02;;
21810;SDS011;11067;48.788;9.208;2023-05-16T08:27:43;12.47;;;7.97;;
21810;SDS011;11067;48.788;9.208;2023-05-16T08:30:10;10.80;;;7.78;;
21810;SDS011;11067;48.788;9.208;2023-05-16T08:32:36;11.55;;;7.55;;
21810;SDS011;11067;48.788;9.208;2023-05-16T08:35:02;10.93;;;7.63;;
21810;SDS011;11067;48.788;9.208;2023-05-16T08:37:28;12.13;;;8.47;;
21810;SDS011;11067;48.788;9.208;2023-05-16T08:39:53;13.90;;;8.80;;
21810;SDS011;11067;48.788;9.208;2023-05-16T08:42:19;14.07;;;8.50;;
21810;SDS011;11067;48.788;9.208;2023-05-16T08:44:45;13.70;;;8.37;;
21810;SDS011;11067;48.788;9.208;2023-05-16T08:47:11;14.23;;;9.07;;
21810;SDS011;11067;48.788;9.208;2023-05-16T08:49:41;13.93;;;9.70;;
21810;SDS011;11067;48.788;9.208;2023-05-16T08:52:08;14.02;;;9.98;;
21810;SDS011;11067;48.788;9.208;2023-05-16T08:54:35;14.03;;;9.57;;
21810;SDS011;11067;48.788;9.208;2023-05-16T08:57:01;15.90;;;10.10;;
21810;SDS011;11067;48.788;9.208;2023-05-16T08:59:28;14.98;;;9.80;;
21810;SDS011;11067;48.788;9.208;2023-05-16T09:01:54;15.45;;;9.77;;
21810;SDS011;11067;48.788;9.208;2023-05-16T09:04:21;14.05;;;9.43;;
21810;SDS011;11067;48.788;9.208;2023-05-16T09:06:49;16.42;;;10.70;;
21810;SDS011;11067;48.788;9.208;2023-05-16T09:09:15;20.00;;;11.93;;
21810;SDS011;11067;48.788;9.208;2023-05-16T09:11:41;17.20;;;10.63;;
21810;SDS011;11067;48.788;9.208;2023-05-16T09:14:07;17.95;;;11.05;;
21810;SDS011;11067;48.788;9.208;2023-05-16T09:16:32;16.10;;;10.30;;
21810;SDS011;11067;48.788;9.208;2023-05-16T09:18:58;17.30;;;10.60;;
21810;SDS011;11067;48.788;9.208;2023-05-16T09:21:26;18.33;;;10.73;;
21810;SDS011;11067;48.788;9.208;2023-05-16T09:23:53;17.35;;;11.13;;
21810;SDS011;11067;48.788;9.208;2023-05-16T09:26:19;19.33;;;11.38;;
21810;SDS011;11067;48.788;9.208;2023-05-16T09:28:45;19.17;;;10.75;;
21810;SDS011;11067;48.788;9.208;2023-05-16T09:31:21;17.07;;;11.33;;
21810;SDS011;11067;48.788;9.208;2023-05-16T09:33:50;17.63;;;11.38;;
21810;SDS011;11067;48.788;9.208;2023-05-16T09:36:16;17.83;;;11.27;;
21810;SDS011;11067;48.788;9.208;2023-05-16T09:38:42;18.67;;;11.53;;
21810;SDS011;11067;48.788;9.208;2023-05-16T09:41:08;16.92;;;10.55;;
21810;SDS011;11067;48.788;9.208;2023-05-16T09:43:36;20.60;;;12.35;;
21810;SDS011;11067;48.788;9.208;2023-05-16T09:46:03;19.83;;;11.80;;
21810;SDS011;11067;48.788;9.208;2023-05-16T09:48:28;20.13;;;11.80;;
21810;SDS011;11067;48.788;9.208;2023-05-16T09:50:55;20.05;;;12.35;;
21810;SDS011;11067;48.788;9.208;2023-05-16T09:53:25;18.83;;;11.32;;
21810;SDS011;11067;48.788;9.208;2023-05-16T09:58:31;18.50;;;11.55;;
21810;SDS011;11067;48.788;9.208;2023-05-16T10:00:58;17.55;;;11.57;;
21810;SDS011;11067;48.788;9.208;2023-05-16T10:03:25;18.37;;;11.53;;
21810;SDS011;11067;48.788;9.208;2023-05-16T10:05:51;17.98;;;10.95;;
21810;SDS011;11067;48.788;9.208;2023-05-16T10:08:21;18.83;;;11.63;;
21810;SDS011;11067;48.788;9.208;2023-05-16T10:10:49;21.30;;;11.30;;
21810;SDS011;11067;48.788;9.208;2023-05-16T10:13:18;22.60;;;12.40;;
21810;SDS011;11067;48.788;9.208;2023-05-16T10:15:47;18.05;;;10.93;;
21810;SDS011;11067;48.788;9.208;2023-05-16T10:18:13;17.98;;;11.00;;
21810;SDS011;11067;48.788;9.208;2023-05-16T10:20:42;19.77;;;12.47;;
21810;SDS011;11067;48.788;9.208;2023-05-16T10:23:14;20.27;;;12.45;;
21810;SDS011;11067;48.788;9.208;2023-05-16T10:25:41;17.85;;;10.82;;
21810;SDS011;11067;48.788;9.208;2023-05-16T10:28:09;18.90;;;11.87;;
21810;SDS011;11067;48.788;9.208;2023-05-16T10:30:36;18.93;;;11.33;;
21810;SDS011;11067;48.788;9.208;2023-05-16T10:33:05;16.42;;;9.95;;
21810;SDS011;11067;48.788;9.208;2023-05-16T10:35:33;17.08;;;10.55;;
21810;SDS011;11067;48.788;9.208;2023-05-16T10:37:59;19.85;;;10.90;;
21810;SDS011;11067;48.788;9.208;2023-05-16T10:40:25;17.35;;;10.07;;
21810;SDS011;11067;48.788;9.208;2023-05-16T10:42:55;18.58;;;10.27;;
21810;SDS011;11067;48.788;9.208;2023-05-16T10:45:25;18.95;;;10.98;;
21810;SDS011;11067;48.788;9.208;2023-05-16T10:50:29;18.50;;;11.67;;
21810;SDS011;11067;48.788;9.208;2023-05-16T10:52:55;16.63;;;10.13;;
21810;SDS011;11067;48.788;9.208;2023-05-16T10:55:35;25.67;;;12.40;;
21810;SDS011;11067;48.788;9.208;2023-05-16T10:58:00;20.50;;;11.70;;
21810;SDS011;11067;48.788;9.208;2023-05-16T11:00:27;21.27;;;11.45;;
21810;SDS011;11067;48.788;9.208;2023-05-16T11:02:54;18.48;;;11.15;;
21810;SDS011;11067;48.788;9.208;2023-05-16T11:05:29;16.27;;;9.90;;
21810;SDS011;11067;48.788;9.208;2023-05-16T11:08:02;11.80;;;6.70;;
21810;SDS011;11067;48.788;9.208;2023-05-16T11:10:29;19.23;;;9.18;;
21810;SDS011;11067;48.788;9.208;2023-05-16T11:12:55;12.00;;;7.40;;
21810;SDS011;11067;48.788;9.208;2023-05-16T11:15:30;15.52;;;8.65;;
21810;SDS011;11067;48.788;9.208;2023-05-16T11:18:02;17.33;;;9.45;;
21810;SDS011;11067;48.788;9.208;2023-05-16T11:20:30;14.77;;;8.23;;
21810;SDS011;11067;48.788;9.208;2023-05-16T11:23:33;15.20;;;9.15;;
21810;SDS011;11067;48.788;9.208;2023-05-16T11:25:55;20.70;;;9.32;;
21810;SDS011;11067;48.788;9.208;2023-05-16T11:28:25;15.82;;;7.72;;
21810;SDS011;11067;48.788;9.208;2023-05-16T11:30:52;14.02;;;8.32;;
21810;SDS011;11067;48.788;9.208;2023-05-16T11:33:21;15.00;;;7.80;;
21810;SDS011;11067;48.788;9.208;2023-05-16T11:36:04;13.88;;;7.30;;
21810;SDS011;11067;48.788;9.208;2023-05-16T11:38:31;12.65;;;7.47;;
21810;SDS011;11067;48.788;9.208;2023-05-16T11:41:04;13.50;;;7.40;;
21810;SDS011;11067;48.788;9.208;2023-05-16T11:43:40;12.93;;;7.73;;
21810;SDS011;11067;48.788;9.208;2023-05-16T11:46:09;10.77;;;6.88;;
21810;SDS011;11067;48.788;9.208;2023-05-16T11:48:38;11.00;;;6.85;;
21810;SDS011;11067;48.788;9.208;2023-05-16T11:51:04;10.60;;;6.97;;
21810;SDS011;11067;48.788;9.208;2023-05-16T11:53:31;11.27;;;7.13;;
21810;SDS011;11067;48.788;9.208;2023-05-16T11:55:58;11.13;;;6.53;;
21810;SDS011;11067;48.788;9.208;2023-05-16T11:58:26;10.30;;;7.07;;
21810;SDS011;11067;48.788;9.208;2023-05-16T12:00:52;10.32;;;6.80;;
21810;SDS011;11067;48.788;9.208;2023-05-16T12:03:18;11.15;;;6.55;;
21810;SDS011;11067;48.788;9.208;2023-05-16T12:05:51;11.77;;;7.10;;
21810;SDS011;11067;48.788;9.208;2023-05-16T12:08:18;11.70;;;6.80;;
21810;SDS011;11067;48.788;9.208;2023-05-16T12:10:46;11.60;;;7.07;;
21810;SDS011;11067;48.788;9.208;2023-05-16T12:13:16;11.57;;;6.90;;
21810;SDS011;11067;48.788;9.208;2023-05-16T12:15:45;10.65;;;6.47;;
21810;SDS011;11067;48.788;9.208;2023-05-16T12:18:12;9.07;;;6.22;;
21810;SDS011;11067;48.788;9.208;2023-05-16T12:20:38;10.45;;;6.25;;
21810;SDS011;11067;48.788;9.208;2023-05-16T12:23:04;8.55;;;5.72;;
21810;SDS011;11067;48.788;9.208;2023-05-16T12:25:34;8.57;;;4.90;;
21810;SDS011;11067;48.788;9.208;2023-05-16T12:28:02;7.13;;;5.10;;
21810;SDS011;11067;48.788;9.208;2023-05-16T12:30:31;8.45;;;5.65;;
21810;SDS011;11067;48.788;9.208;2023-05-16T12:33:07;6.57;;;4.65;;
21810;SDS011;11067;48.788;9.208;2023-05-16T12:35:38;9.15;;;5.20;;
21810;SDS011;11067;48.788;9.208;2023-05-16T12:38:08;7.47;;;4.60;;
21810;SDS011;11067;48.788;9.208;2023-05-16T12:40:38;10.18;;;5.00;;
21810;SDS011;11067;48.788;9.208;2023-05-16T12:43:11;6.75;;;3.90;;
21810;SDS011;11067;48.788;9.208;2023-05-16T12:45:41;5.13;;;3.40;;
21810;SDS011;11067;48.788;9.208;2023-05-16T12:48:10;6.95;;;3.80;;
21810;SDS011;11067;48.788;9.208;2023-05-16T12:50:37;7.38;;;3.30;;
21810;SDS011;11067;48.788;9.208;2023-05-16T12:53:04;5.00;;;3.47;;
21810;SDS011;11067;48.788;9.208;2023-05-16T12:55:34;6.07;;;3.22;;
21810;SDS011;11067;48.788;9.208;2023-05-16T12:58:00;4.47;;;3.10;;
21810;SDS011;11067;48.788;9.208;2023-05-16T13:00:25;6.27;;;3.50;;
21810;SDS011;11067;48.788;9.208;2023-05-16T13:02:51;4.85;;;3.25;;
21810;SDS011;11067;48.788;9.208;2023-05-16T13:05:16;3.38;;;2.88;;
21810;SDS011;11067;48.788;9.208;2023-05-16T13:07:42;4.20;;;3.30;;
21810;SDS011;11067;48.788;9.208;2023-05-16T13:10:10;6.93;;;3.30;;
21810;SDS011;11067;48.788;9.208;2023-05-16T13:12:36;3.83;;;3.03;;
21810;SDS011;11067;48.788;9.208;2023-05-16T13:15:04;3.55;;;3.00;;
21810;SDS011;11067;48.788;9.208;2023-05-16T13:17:34;3.30;;;2.45;;
21810;SDS011;11067;48.788;9.208;2023-05-16T13:20:00;4.43;;;3.35;;
21810;SDS011;11067;48.788;9.208;2023-05-16T13:22:33;3.35;;;2.90;;
21810;SDS011;11067;48.788;9.208;2023-05-16T13:25:02;4.13;;;2.90;;
21810;SDS011;11067;48.788;9.208;2023-05-16T13:27:29;3.10;;;2.40;;
21810;SDS011;11067;48.788;9.208;2023-05-16T13:29:56;4.20;;;2.30;;
21810;SDS011;11067;48.788;9.208;2023-05-16T13:32:22;4.03;;;2.58;;
21810;SDS011;11067;48.788;9.208;2023-05-16T13:34:48;4.40;;;2.50;;
21810;SDS011;11067;48.788;9.208;2023-05-16T13:37:14;3.60;;;2.20;;
21810;SDS011;11067;48.788;9.208;2023-05-16T13:39:39;4.78;;;2.47;;
21810;SDS011;11067;48.788;9.208;2023-05-16T13:42:05;4.82;;;2.47;;
21810;SDS011;11067;48.788;9.208;2023-05-16T13:44:31;4.43;;;3.13;;
21810;SDS011;11067;48.788;9.208;2023-05-16T13:46:57;3.20;;;2.50;;
21810;SDS011;11067;48.788;9.208;2023-05-16T13:49:23;2.97;;;2.53;;
21810;SDS011;11067;48.788;9.208;2023-05-16T13:51:48;3.73;;;2.50;;
21810;SDS011;11067;48.788;9.208;2023-05-16T13:54:15;5.68;;;3.00;;
21810;SDS011;11067;48.788;9.208;2023-05-16T13:56:41;2.75;;;2.50;;
21810;SDS011;11067;48.788;9.208;2023-05-16T13:59:07;2.92;;;2.55;;
21810;SDS011;11067;48.788;9.208;2023-05-16T14:01:33;3.67;;;2.30;;
21810;SDS011;11067;48.788;9.208;2023-05-16T14:04:00;4.28;;;2.38;;
21810;SDS011;11067;48.788;9.208;2023-05-16T14:06:26;2.63;;;2.42;;
21810;SDS011;11067;48.788;9.208;2023-05-16T14:08:52;3.20;;;2.43;;
21810;SDS011;11067;48.788;9.208;2023-05-16T14:11:18;3.47;;;2.63;;
21810;SDS011;11067;48.788;9.208;2023-05-16T14:13:44;3.20;;;2.35;;
21810;SDS011;11067;48.788;9.208;2023-05-16T14:16:10;3.27;;;2.47;;
21810;SDS011;11067;48.788;9.208;2023-05-16T14:18:35;5.40;;;2.57;;
21810;SDS011;11067;48.788;9.208;2023-05-16T14:21:01;3.55;;;2.75;;
21810;SDS011;11067;48.788;9.208;2023-05-16T14:23:29;4.50;;;2.53;;
21810;SDS011;11067;48.788;9.208;2023-05-16T14:25:55;3.60;;;2.80;;
21810;SDS011;11067;48.788;9.208;2023-05-16T14:28:20;3.00;;;2.70;;
21810;SDS011;11067;48.788;9.208;2023-05-16T14:30:46;3.30;;;2.83;;
21810;SDS011;11067;48.788;9.208;2023-05-16T14:33:11;3.40;;;2.40;;
21810;SDS011;11067;48.788;9.208;2023-05-16T14:35:38;4.30;;;3.00;;
21810;SDS011;11067;48.788;9.208;2023-05-16T14:38:03;4.50;;;3.08;;
21810;SDS011;11067;48.788;9.208;2023-05-16T14:40:29;3.60;;;2.47;;